createdAt,value
2018-05-15T00:00:07.452Z,14.67
2018-05-15T00:02:36.436Z,14.59
2018-05-15T00:05:02.408Z,14.48
2018-05-15T00:07:31.749Z,14.52
2018-05-15T00:09:57.651Z,14.53
2018-05-15T00:12:25.922Z,14.52
2018-05-15T00:14:51.887Z,14.53
2018-05-15T00:17:17.766Z,14.44
2018-05-15T00:19:43.656Z,14.32
2018-05-15T00:22:09.554Z,14.30
2018-05-15T00:24:37.307Z,14.28
2018-05-15T00:27:03.228Z,14.24
2018-05-15T00:29:32.404Z,14.17
2018-05-15T00:31:58.322Z,14.29
2018-05-15T00:34:27.713Z,14.39
2018-05-15T00:36:53.593Z,14.34
2018-05-15T00:39:23.175Z,14.44
2018-05-15T00:41:49.044Z,14.44
2018-05-15T00:44:16.479Z,14.53
2018-05-15T00:46:42.371Z,14.41
2018-05-15T00:49:11.916Z,14.40
2018-05-15T00:51:37.828Z,14.61
2018-05-15T00:54:03.741Z,14.61
2018-05-15T00:56:29.616Z,14.50
2018-05-15T00:58:55.559Z,14.43
2018-05-15T01:01:24.500Z,14.33
2018-05-15T01:03:50.411Z,14.44
2018-05-15T01:06:18.214Z,14.56
2018-05-15T01:08:44.098Z,14.55
2018-05-15T01:11:13.132Z,14.57
2018-05-15T01:13:39.003Z,14.59
2018-05-15T01:16:08.753Z,14.64
2018-05-15T01:18:34.666Z,14.50
2018-05-15T01:21:01.703Z,14.38
2018-05-15T01:23:27.661Z,14.43
2018-05-15T01:25:57.307Z,14.39
2018-05-15T01:28:23.219Z,14.45
2018-05-15T01:30:49.148Z,14.40
2018-05-15T01:33:16.215Z,14.35
2018-05-15T01:35:42.090Z,14.37
2018-05-15T01:38:07.986Z,14.51
2018-05-15T01:40:33.885Z,14.54
2018-05-15T01:43:03.166Z,14.46
2018-05-15T01:45:29.090Z,14.40
2018-05-15T01:47:58.245Z,14.44
2018-05-15T01:50:24.178Z,14.25
2018-05-15T01:52:53.253Z,14.22
2018-05-15T01:55:19.158Z,14.23
2018-05-15T01:57:48.644Z,14.32
2018-05-15T02:00:14.535Z,14.24
2018-05-15T02:02:42.308Z,14.26
2018-05-15T02:05:08.168Z,14.36
2018-05-15T02:07:34.039Z,14.31
2018-05-15T02:09:59.964Z,14.28
2018-05-15T02:12:25.894Z,14.15
2018-05-15T02:14:54.068Z,14.20
2018-05-15T02:17:19.967Z,14.26
2018-05-15T02:33:16.723Z,14.33
2018-05-15T02:35:43.582Z,14.08
2018-05-15T02:38:09.522Z,14.12
2018-05-15T02:40:39.005Z,14.17
2018-05-15T02:43:04.916Z,13.97
2018-05-15T02:45:34.361Z,13.98
2018-05-15T02:48:00.249Z,14.10
2018-05-15T02:50:27.468Z,14.10
2018-05-15T02:52:53.401Z,14.03
2018-05-15T02:55:22.560Z,14.05
2018-05-15T02:57:48.457Z,13.94
2018-05-15T03:00:17.253Z,14.03
2018-05-15T03:02:43.122Z,14.05
2018-05-15T03:05:09.081Z,13.98
2018-05-15T03:07:34.949Z,13.97
2018-05-15T03:10:00.891Z,13.99
2018-05-15T03:12:28.614Z,14.06
2018-05-15T03:14:54.510Z,14.06
2018-05-15T03:17:24.343Z,13.96
2018-05-15T03:19:50.242Z,14.03
2018-05-15T03:22:19.885Z,14.01
2018-05-15T03:24:45.758Z,13.96
2018-05-15T03:38:14.015Z,13.92
2018-05-15T03:40:39.936Z,13.86
2018-05-15T03:43:09.834Z,13.82
2018-05-15T03:45:35.723Z,13.86
2018-05-15T03:48:02.983Z,13.90
2018-05-15T03:50:28.854Z,13.77
2018-05-15T03:52:58.379Z,13.77
2018-05-15T03:55:24.258Z,13.76
2018-05-15T03:57:50.172Z,13.70
2018-05-15T04:00:28.447Z,13.67
2018-05-15T04:03:06.727Z,13.69
2018-05-15T04:05:44.894Z,13.62
2018-05-15T04:08:11.596Z,13.73
2018-05-15T04:10:37.471Z,13.76
2018-05-15T04:13:03.410Z,13.84
2018-05-15T04:15:29.324Z,13.78
2018-05-15T04:17:55.278Z,13.78
2018-05-15T04:20:21.221Z,13.80
2018-05-15T04:22:47.129Z,13.73
2018-05-15T04:25:13.006Z,13.79
2018-05-15T04:27:38.919Z,13.74
2018-05-15T04:30:04.795Z,13.77
2018-05-15T04:32:30.696Z,13.84
2018-05-15T04:34:56.620Z,13.82
2018-05-15T04:37:22.540Z,13.85
2018-05-15T04:39:48.465Z,13.88
2018-05-15T04:42:14.381Z,13.88
2018-05-15T04:44:40.408Z,13.89
2018-05-15T04:47:06.327Z,14.00
2018-05-15T04:49:32.215Z,14.10
2018-05-15T04:51:58.140Z,14.10
2018-05-15T04:54:24.051Z,14.16
2018-05-15T04:56:49.955Z,14.12
2018-05-15T04:59:15.859Z,14.03
2018-05-15T05:01:41.763Z,13.95
2018-05-15T05:04:07.667Z,13.76
2018-05-15T05:06:33.653Z,13.83
2018-05-15T05:08:59.559Z,14.04
2018-05-15T05:11:25.471Z,13.94
2018-05-15T05:13:51.438Z,13.78
2018-05-15T05:16:17.366Z,13.71
2018-05-15T05:18:43.307Z,13.73
2018-05-15T05:21:09.236Z,13.91
2018-05-15T05:23:35.236Z,13.95
2018-05-15T05:26:01.188Z,13.77
2018-05-15T05:28:30.599Z,13.68
2018-05-15T05:30:56.499Z,13.69
2018-05-15T05:33:24.404Z,13.80
2018-05-15T05:35:50.286Z,13.74
2018-05-15T05:38:19.648Z,14.00
2018-05-15T05:40:45.619Z,14.18
2018-05-15T05:43:14.766Z,14.32
2018-05-15T05:45:40.710Z,14.46
2018-05-15T05:48:06.585Z,14.72
2018-05-15T05:50:32.471Z,14.73
2018-05-15T05:52:58.363Z,14.87
2018-05-15T05:55:25.102Z,14.90
2018-05-15T05:57:51.014Z,14.96
2018-05-15T06:00:19.855Z,14.90
2018-05-15T06:02:45.784Z,15.00
2018-05-15T06:05:14.523Z,15.06
2018-05-15T06:07:40.391Z,15.26
2018-05-15T06:10:09.583Z,15.32
2018-05-15T06:12:35.774Z,15.31
2018-05-15T06:15:03.981Z,15.30
2018-05-15T06:17:29.891Z,15.35
2018-05-15T06:19:58.724Z,15.38
2018-05-15T06:22:24.599Z,15.37
2018-05-15T06:24:50.542Z,15.31
2018-05-15T06:27:16.477Z,15.20
2018-05-15T06:29:42.390Z,15.27
2018-05-15T06:32:12.213Z,15.16
2018-05-15T06:34:38.139Z,15.36
2018-05-15T06:37:05.253Z,15.28
2018-05-15T06:39:31.203Z,15.40
2018-05-15T06:42:00.104Z,15.58
2018-05-15T06:44:25.987Z,15.87
2018-05-15T06:46:55.126Z,15.88
2018-05-15T06:49:20.999Z,16.05
2018-05-15T06:51:50.408Z,16.11
2018-05-15T06:54:16.315Z,16.17
2018-05-15T06:56:44.205Z,16.12
2018-05-15T06:59:10.083Z,16.04
2018-05-15T07:01:35.982Z,16.11
2018-05-15T07:04:01.928Z,15.99
2018-05-15T07:06:27.829Z,15.85
2018-05-15T07:08:56.987Z,15.85
2018-05-15T07:11:22.898Z,15.85
2018-05-15T07:13:52.449Z,15.97
2018-05-15T07:16:20.860Z,16.11
2018-05-15T07:18:46.927Z,16.23
2018-05-15T07:21:12.874Z,16.19
2018-05-15T07:23:41.863Z,16.14
2018-05-15T07:26:07.785Z,16.32
2018-05-15T07:28:34.729Z,16.70
2018-05-15T07:31:00.662Z,16.38
2018-05-15T07:33:29.573Z,16.01
2018-05-15T07:35:55.469Z,16.14
2018-05-15T07:38:21.407Z,16.39
2018-05-15T07:40:47.288Z,16.34
2018-05-15T07:43:13.206Z,16.33
2018-05-15T07:45:41.580Z,16.41
2018-05-15T07:48:07.466Z,16.23
2018-05-15T07:50:36.666Z,15.94
2018-05-15T07:53:02.582Z,15.47
2018-05-15T07:55:31.846Z,15.23
2018-05-15T07:57:57.735Z,15.18
2018-05-15T08:12:04.195Z,16.49
2018-05-15T08:14:30.098Z,16.85
2018-05-15T08:16:56.031Z,17.08
2018-05-15T08:19:21.911Z,17.19
2018-05-15T08:21:47.815Z,17.50
2018-05-15T08:24:13.706Z,17.94
2018-05-15T08:26:39.615Z,18.44
2018-05-15T08:29:05.530Z,18.75
2018-05-15T08:31:31.429Z,18.85
2018-05-15T08:33:57.330Z,18.75
2018-05-15T08:36:23.222Z,18.51
2018-05-15T08:38:49.203Z,18.80
2018-05-15T08:41:15.076Z,19.06
2018-05-15T08:43:40.941Z,19.53
2018-05-15T08:46:06.902Z,19.39
2018-05-15T08:48:32.885Z,19.63
2018-05-15T08:50:58.776Z,19.78
2018-05-15T08:53:24.696Z,19.87
2018-05-15T08:55:50.574Z,19.83
2018-05-15T09:10:25.623Z,20.19
2018-05-15T09:12:51.479Z,20.11
2018-05-15T09:15:17.391Z,20.11
2018-05-15T09:17:43.314Z,19.88
2018-05-15T09:20:09.234Z,20.11
2018-05-15T09:22:35.124Z,20.14
2018-05-15T09:25:01.071Z,20.16
2018-05-15T09:27:26.995Z,20.38
2018-05-15T09:29:52.930Z,20.34
2018-05-15T09:32:18.844Z,20.76
2018-05-15T09:34:46.215Z,20.91
2018-05-15T09:37:12.200Z,20.60
2018-05-15T09:39:41.301Z,20.72
2018-05-15T09:42:07.213Z,21.30
2018-05-15T09:44:36.555Z,21.71
2018-05-15T09:47:02.497Z,22.03
2018-05-15T09:49:28.417Z,22.09
2018-05-15T09:51:54.340Z,22.40
2018-05-15T09:54:20.275Z,22.13
2018-05-15T09:56:47.744Z,22.18
2018-05-15T09:59:13.663Z,22.28
2018-05-15T10:01:42.628Z,22.38
2018-05-15T10:04:08.506Z,22.58
2018-05-15T10:06:37.797Z,22.82
2018-05-15T10:09:04.658Z,22.89
2018-05-15T10:11:31.375Z,23.12
2018-05-15T10:13:57.270Z,23.13
2018-05-15T10:16:25.962Z,23.34
2018-05-15T10:18:51.870Z,23.43
2018-05-15T10:21:20.579Z,22.99
2018-05-15T10:23:46.463Z,22.57
2018-05-15T10:26:12.378Z,22.53
2018-05-15T10:28:38.311Z,22.78
2018-05-15T10:31:04.215Z,22.57
2018-05-15T10:33:34.097Z,22.09
2018-05-15T10:36:00.012Z,22.14
2018-05-15T10:38:27.323Z,22.47
2018-05-15T10:40:53.299Z,22.68
2018-05-15T10:43:23.159Z,23.09
2018-05-15T10:45:49.055Z,23.53
2018-05-15T10:48:18.465Z,24.06
2018-05-15T10:50:44.350Z,24.29
2018-05-15T10:53:11.755Z,24.44
2018-05-15T10:55:37.690Z,24.39
2018-05-15T10:58:06.864Z,24.55
2018-05-15T11:00:32.776Z,24.61
2018-05-15T11:02:58.643Z,24.65
2018-05-15T11:05:24.558Z,24.82
2018-05-15T11:07:50.481Z,24.44
2018-05-15T11:10:18.323Z,24.16
2018-05-15T11:12:44.296Z,24.21
2018-05-15T11:15:15.169Z,23.92
2018-05-15T11:17:41.062Z,23.46
2018-05-15T11:20:20.339Z,23.11
2018-05-15T11:22:58.815Z,23.27
2018-05-15T11:25:24.703Z,23.85
2018-05-15T11:27:50.641Z,24.53
2018-05-15T11:30:16.548Z,25.14
2018-05-15T11:32:42.491Z,25.37
2018-05-15T11:35:08.438Z,25.51
2018-05-15T11:37:34.337Z,25.52
2018-05-15T11:40:00.252Z,25.01
2018-05-15T11:42:26.148Z,24.58
2018-05-15T11:44:52.087Z,24.14
2018-05-15T11:47:18.007Z,23.87
2018-05-15T11:49:44.621Z,23.63
2018-05-15T11:52:10.679Z,23.87
2018-05-15T11:54:35.744Z,23.90
2018-05-15T11:57:01.643Z,23.77
2018-05-15T11:59:27.551Z,23.54
2018-05-15T12:01:53.471Z,22.98
2018-05-15T12:04:19.334Z,22.72
2018-05-15T12:06:45.297Z,22.72
2018-05-15T12:09:11.232Z,22.56
2018-05-15T12:11:37.201Z,22.50
2018-05-15T12:14:03.130Z,22.64
2018-05-15T12:16:29.111Z,22.61
2018-05-15T12:18:54.999Z,22.51
2018-05-15T12:21:20.939Z,22.45
2018-05-15T12:23:48.441Z,22.30
2018-05-15T12:26:14.370Z,22.11
2018-05-15T12:28:47.107Z,21.58
2018-05-15T12:31:13.011Z,21.35
2018-05-15T12:33:38.922Z,20.94
2018-05-15T12:36:04.933Z,19.65
2018-05-15T12:38:32.714Z,18.80
2018-05-15T12:40:58.653Z,18.82
2018-05-15T12:43:27.975Z,19.44
2018-05-15T12:45:53.837Z,19.63
2018-05-15T12:48:23.154Z,19.86
2018-05-15T12:50:49.004Z,19.94
2018-05-15T12:53:14.954Z,20.19
2018-05-15T12:55:40.880Z,20.23
2018-05-15T12:58:06.797Z,20.26
2018-05-15T13:00:33.826Z,20.44
2018-05-15T13:02:59.737Z,20.69
2018-05-15T13:05:30.225Z,21.36
2018-05-15T13:07:56.205Z,21.38
2018-05-15T13:10:23.412Z,21.98
2018-05-15T13:12:49.340Z,22.69
2018-05-15T13:15:18.884Z,23.44
2018-05-15T13:17:44.795Z,24.11
2018-05-15T13:20:14.095Z,24.65
2018-05-15T13:33:39.047Z,23.72
2018-05-15T13:36:04.908Z,23.60
2018-05-15T13:38:30.808Z,23.92
2018-05-15T13:40:56.723Z,24.24
2018-05-15T13:43:22.616Z,24.42
2018-05-15T13:45:48.514Z,24.88
2018-05-15T13:48:14.423Z,25.08
2018-05-15T13:50:40.366Z,25.31
2018-05-15T13:53:06.292Z,25.58
2018-05-15T13:55:32.199Z,25.65
2018-05-15T13:57:58.123Z,25.54
2018-05-15T14:00:24.062Z,25.68
2018-05-15T14:02:49.943Z,25.58
2018-05-15T14:05:15.877Z,25.41
2018-05-15T14:07:41.779Z,25.64
2018-05-15T14:10:07.733Z,25.33
2018-05-15T14:12:33.711Z,24.73
2018-05-15T14:14:59.671Z,24.60
2018-05-15T14:17:25.590Z,24.64
2018-05-15T14:19:51.509Z,24.84
2018-05-15T14:22:17.392Z,25.00
2018-05-15T14:24:46.880Z,25.18
2018-05-15T14:27:12.895Z,25.46
2018-05-15T14:29:39.540Z,25.94
2018-05-15T14:32:05.467Z,25.97
2018-05-15T14:34:34.828Z,26.12
2018-05-15T14:37:00.770Z,26.31
2018-05-15T14:39:30.588Z,26.57
2018-05-15T14:42:08.831Z,26.23
2018-05-15T14:44:34.780Z,25.95
2018-05-15T14:47:00.688Z,25.68
2018-05-15T14:49:26.619Z,25.94
2018-05-15T14:51:52.487Z,26.12
2018-05-15T14:54:18.408Z,25.93
2018-05-15T14:56:44.336Z,25.92
2018-05-15T14:59:10.281Z,26.13
2018-05-15T15:01:36.326Z,26.19
2018-05-15T15:04:04.700Z,26.23
2018-05-15T15:06:30.682Z,25.99
2018-05-15T15:08:56.566Z,25.15
2018-05-15T15:11:22.492Z,24.69
2018-05-15T15:13:48.432Z,24.87
2018-05-15T15:16:14.389Z,24.96
2018-05-15T15:18:40.286Z,24.91
2018-05-15T15:21:09.741Z,24.65
2018-05-15T15:23:35.709Z,23.90
2018-05-15T15:26:05.290Z,23.41
2018-05-15T15:28:31.246Z,22.81
2018-05-15T15:30:57.187Z,22.89
2018-05-15T15:33:23.118Z,22.83
2018-05-15T15:35:49.021Z,22.68
2018-05-15T15:38:15.949Z,23.03
2018-05-15T15:40:41.876Z,23.44
2018-05-15T15:43:11.484Z,23.72
2018-05-15T15:45:37.402Z,24.04
2018-05-15T15:48:04.849Z,24.21
2018-05-15T15:50:30.744Z,24.05
2018-05-15T15:53:02.470Z,23.71
2018-05-15T15:55:28.520Z,23.47
2018-05-15T15:57:55.694Z,23.49
2018-05-15T16:00:21.620Z,23.23
2018-05-15T16:02:49.466Z,23.24
2018-05-15T16:05:15.367Z,23.30
2018-05-15T16:07:41.276Z,23.60
2018-05-15T16:10:07.282Z,23.82
2018-05-15T16:12:33.126Z,23.98
2018-05-15T16:15:03.034Z,23.79
2018-05-15T16:17:28.987Z,23.41
2018-05-15T16:19:55.606Z,23.57
2018-05-15T16:22:21.675Z,23.12
2018-05-15T16:24:54.767Z,22.62
2018-05-15T16:27:21.664Z,22.41
2018-05-15T16:29:47.801Z,21.91
2018-05-15T16:32:14.135Z,21.87
2018-05-15T16:34:40.165Z,21.93
2018-05-15T16:37:06.860Z,21.91
2018-05-15T16:39:36.024Z,21.77
2018-05-15T16:42:03.325Z,21.68
2018-05-15T16:44:29.284Z,21.69
2018-05-15T16:46:55.181Z,21.38
2018-05-15T16:49:21.149Z,21.42
2018-05-15T16:51:47.059Z,21.25
2018-05-15T16:54:12.960Z,21.33
2018-05-15T16:56:43.160Z,21.17
2018-05-15T16:59:09.097Z,21.24
2018-05-15T17:01:35.926Z,21.22
2018-05-15T17:04:01.885Z,20.98
2018-05-15T17:06:31.457Z,20.97
2018-05-15T17:08:57.406Z,20.82
2018-05-15T17:11:25.058Z,20.59
2018-05-15T17:13:51.016Z,20.58
2018-05-15T17:16:20.312Z,20.60
2018-05-15T17:18:46.225Z,20.63
2018-05-15T17:21:12.159Z,20.55
2018-05-15T17:23:38.139Z,20.59
2018-05-15T17:26:04.056Z,20.41
2018-05-15T17:28:31.944Z,20.37
2018-05-15T17:30:58.084Z,20.08
2018-05-15T17:33:27.547Z,19.48
2018-05-15T17:35:53.457Z,18.99
2018-05-15T17:38:22.420Z,18.74
2018-05-15T17:52:03.752Z,17.66
2018-05-15T17:54:29.668Z,17.60
2018-05-15T17:56:58.718Z,17.56
2018-05-15T17:59:24.605Z,17.70
2018-05-15T18:01:53.800Z,17.78
2018-05-15T18:04:19.731Z,17.88
2018-05-15T18:06:49.569Z,17.74
2018-05-15T18:09:15.449Z,17.59
2018-05-15T18:11:42.641Z,17.34
2018-05-15T18:14:08.582Z,17.27
2018-05-15T18:16:37.122Z,17.05
2018-05-15T18:19:02.999Z,16.91
2018-05-15T18:21:31.809Z,17.01
2018-05-15T18:23:57.710Z,16.99
2018-05-15T18:26:26.773Z,16.87
2018-05-15T18:28:52.650Z,16.65
2018-05-15T18:31:21.819Z,16.45
2018-05-15T18:33:47.766Z,16.69
2018-05-15T18:36:17.355Z,16.79
2018-05-15T18:38:43.288Z,16.85
2018-05-15T18:41:12.239Z,16.86
2018-05-15T18:43:38.139Z,16.92
2018-05-15T18:46:07.483Z,16.90
2018-05-15T18:48:33.429Z,16.89
2018-05-15T18:51:00.621Z,16.87
2018-05-15T18:53:26.515Z,16.82
2018-05-15T18:55:56.485Z,16.73
2018-05-15T18:58:22.394Z,16.69
2018-05-15T19:00:48.298Z,16.67
2018-05-15T19:03:14.191Z,16.64
2018-05-15T19:05:40.083Z,16.56
2018-05-15T19:08:07.155Z,16.51
2018-05-15T19:10:33.047Z,16.59
2018-05-15T19:13:01.545Z,16.60
2018-05-15T19:15:27.464Z,16.68
2018-05-15T19:17:56.765Z,16.69
2018-05-15T19:20:22.702Z,16.70
2018-05-15T19:22:51.888Z,16.62
2018-05-15T19:25:17.816Z,16.61
2018-05-15T19:27:46.276Z,16.56
2018-05-15T19:30:12.220Z,16.44
2018-05-15T19:32:41.367Z,16.44
2018-05-15T19:35:07.293Z,16.48
2018-05-15T19:37:33.262Z,16.35
2018-05-15T19:39:59.158Z,16.40
2018-05-15T19:42:25.061Z,16.41
2018-05-15T19:44:52.845Z,16.38
2018-05-15T19:47:18.818Z,16.45
2018-05-15T19:49:48.634Z,16.41
2018-05-15T19:52:14.571Z,16.47
2018-05-15T19:54:42.438Z,16.35
2018-05-15T19:57:08.333Z,16.17
2018-05-15T19:59:37.495Z,16.02
2018-05-15T20:02:03.424Z,16.01
2018-05-15T20:04:32.323Z,15.81
2018-05-15T20:06:58.236Z,15.89
2018-05-15T20:09:27.593Z,15.98
2018-05-15T20:11:53.457Z,16.02
2018-05-15T20:14:19.386Z,15.92
2018-05-15T20:16:45.310Z,15.69
2018-05-15T20:19:11.224Z,15.63
2018-05-15T20:21:38.084Z,15.58
2018-05-15T20:24:03.986Z,15.37
2018-05-15T20:26:33.340Z,15.28
2018-05-15T20:28:59.308Z,15.39
2018-05-15T20:31:27.445Z,15.38
2018-05-15T20:33:53.367Z,15.31
2018-05-15T20:36:22.514Z,15.54
2018-05-15T20:38:48.427Z,15.67
2018-05-15T20:41:17.546Z,15.69
2018-05-15T20:43:43.446Z,15.69
2018-05-15T20:46:11.041Z,15.75
2018-05-15T20:48:36.953Z,15.82
2018-05-15T20:51:02.900Z,15.90
2018-05-15T20:53:28.781Z,15.72
2018-05-15T20:55:55.027Z,15.61
2018-05-15T20:58:22.968Z,15.60
2018-05-15T21:00:48.784Z,15.56
2018-05-15T21:03:17.579Z,15.47
2018-05-15T21:05:43.473Z,15.54
2018-05-15T21:08:12.196Z,15.57
2018-05-15T21:10:38.109Z,15.62
2018-05-15T21:13:06.989Z,15.56
2018-05-15T21:15:34.416Z,15.54
2018-05-15T21:18:02.360Z,15.54
2018-05-15T21:20:28.282Z,15.61
2018-05-15T21:22:58.036Z,15.75
2018-05-15T21:25:24.250Z,15.80
2018-05-15T21:27:50.176Z,15.86
2018-05-15T21:30:16.061Z,15.76
2018-05-15T21:32:41.998Z,15.68
2018-05-15T21:35:08.299Z,15.57
2018-05-15T21:37:34.203Z,15.46
2018-05-15T21:40:03.507Z,15.36
2018-05-15T21:42:29.394Z,15.35
2018-05-15T21:44:58.874Z,15.17
2018-05-15T21:47:24.842Z,15.10
2018-05-15T21:49:53.858Z,15.15
2018-05-15T21:52:19.729Z,15.05
2018-05-15T21:54:48.827Z,15.15
2018-05-15T21:57:14.772Z,15.11
2018-05-15T21:59:41.819Z,15.02
2018-05-15T22:02:07.871Z,14.77
2018-05-15T22:04:33.769Z,14.80
2018-05-15T22:06:59.827Z,14.75
2018-05-15T22:09:25.735Z,14.77
2018-05-15T22:12:05.153Z,14.80
2018-05-15T22:14:43.737Z,14.62
2018-05-15T22:17:23.853Z,14.57
2018-05-15T22:20:02.143Z,14.49
2018-05-15T22:22:27.912Z,14.44
2018-05-15T22:24:53.742Z,14.56
2018-05-15T22:27:19.634Z,14.77
2018-05-15T22:29:45.514Z,14.96
2018-05-15T22:32:11.432Z,14.83
2018-05-15T22:34:37.334Z,14.92
2018-05-15T22:37:03.233Z,14.98
2018-05-15T22:39:29.203Z,14.92
2018-05-15T22:41:55.067Z,14.82
2018-05-15T22:44:21.006Z,14.70
2018-05-15T22:46:46.890Z,14.74
2018-05-15T22:49:12.839Z,14.81
2018-05-15T22:51:38.742Z,14.96
2018-05-15T22:54:04.617Z,15.02
2018-05-15T22:56:30.523Z,15.05
2018-05-15T22:58:56.416Z,15.10
2018-05-15T23:01:22.367Z,15.21
2018-05-15T23:03:48.268Z,15.34
2018-05-15T23:06:14.162Z,15.35
2018-05-15T23:08:40.079Z,15.36
2018-05-15T23:11:05.991Z,15.43
2018-05-15T23:16:24.505Z,15.27
2018-05-15T23:18:50.394Z,15.22
2018-05-15T23:21:16.311Z,15.18
2018-05-15T23:23:42.227Z,15.08
2018-05-15T23:26:08.198Z,15.01
2018-05-15T23:28:34.108Z,14.90
2018-05-15T23:31:00.092Z,14.71
2018-05-15T23:33:25.987Z,14.45
2018-05-15T23:35:51.907Z,14.41
2018-05-15T23:38:17.834Z,14.56
2018-05-15T23:40:43.743Z,14.73
2018-05-15T23:43:10.955Z,14.78
2018-05-15T23:45:36.961Z,14.75
2018-05-15T23:48:02.856Z,14.78
2018-05-15T23:50:28.835Z,14.82
2018-05-15T23:52:54.812Z,14.82
2018-05-15T23:55:20.731Z,14.73
2018-05-15T23:57:46.632Z,14.53
